createdAt,value
2022-12-06T04:42:32.723Z,100481.16
2022-12-06T04:45:44.814Z,100484.03
2022-12-06T04:48:48.824Z,100483.47
2022-12-06T04:51:54.559Z,100479.88
2022-12-06T04:54:57.090Z,100479.03
2022-12-06T04:57:59.821Z,100486.03
2022-12-06T05:01:02.396Z,100478.75
2022-12-06T05:04:05.457Z,100482.81
2022-12-06T05:07:08.666Z,100480.59
2022-12-06T05:10:11.650Z,100477.22
2022-12-06T05:13:15.781Z,100467.69
2022-12-06T05:16:18.591Z,100463.34
2022-12-06T05:19:21.203Z,100462.03
2022-12-06T05:22:26.777Z,100447.88
2022-12-06T05:25:29.572Z,100451.84
2022-12-06T05:28:33.564Z,100466.53
2022-12-06T05:31:36.182Z,100465.84
2022-12-06T05:34:39.034Z,100460.78
2022-12-06T05:37:41.571Z,100467.13
2022-12-06T05:40:45.118Z,100471.91
2022-12-06T05:43:48.103Z,100472.03
2022-12-06T05:46:51.005Z,100481.41
2022-12-06T05:49:53.558Z,100476.38
2022-12-06T05:52:58.597Z,100463.59
2022-12-06T05:56:09.864Z,100460.94
2022-12-06T05:59:12.550Z,100457.28
2022-12-06T06:02:15.253Z,100457.00
2022-12-06T06:05:18.269Z,100455.72
2022-12-06T06:08:20.789Z,100456.53
2022-12-06T06:11:23.693Z,100457.53
2022-12-06T06:14:26.220Z,100453.87
2022-12-06T06:17:28.982Z,100437.44
2022-12-06T06:20:31.882Z,100441.81
2022-12-06T06:23:34.742Z,100439.16
2022-12-06T06:26:37.152Z,100427.37
2022-12-06T06:29:45.130Z,100433.56
2022-12-06T06:32:48.078Z,100432.12
2022-12-06T06:35:50.876Z,100421.59
2022-12-06T06:38:53.572Z,100419.22
2022-12-06T06:41:56.356Z,100422.19
2022-12-06T06:44:58.763Z,100434.69
2022-12-06T06:48:01.458Z,100424.03
2022-12-06T06:51:06.214Z,100418.97
2022-12-06T06:54:08.991Z,100416.31
2022-12-06T06:57:17.165Z,100408.19
2022-12-06T07:00:20.696Z,100425.12
2022-12-06T07:03:23.880Z,100423.47
2022-12-06T07:06:26.854Z,100422.81
2022-12-06T07:09:29.572Z,100414.53
2022-12-06T07:12:33.171Z,100411.47
2022-12-06T07:15:36.536Z,100406.44
2022-12-06T07:18:39.305Z,100411.88
2022-12-06T07:21:41.852Z,100408.38
2022-12-06T07:24:49.194Z,100402.63
2022-12-06T07:27:54.704Z,100408.50
2022-12-06T07:30:57.575Z,100411.44
2022-12-06T07:34:02.332Z,100431.66
2022-12-06T07:37:06.455Z,100434.03
2022-12-06T07:40:09.615Z,100437.81
2022-12-06T07:43:30.971Z,100428.41
2022-12-06T07:46:33.529Z,100416.81
2022-12-06T07:49:36.435Z,100411.59
2022-12-06T07:52:39.664Z,100398.00
2022-12-06T07:55:42.413Z,100393.50
2022-12-06T07:58:45.285Z,100408.94
2022-12-06T08:01:48.233Z,100406.16
2022-12-06T08:04:51.508Z,100405.59
2022-12-06T08:07:54.079Z,100410.78
2022-12-06T08:11:05.712Z,100419.66
2022-12-06T08:14:08.302Z,100410.09
2022-12-06T08:17:11.335Z,100423.87
2022-12-06T08:20:13.870Z,100424.16
2022-12-06T08:23:16.654Z,100420.37
2022-12-06T08:26:19.388Z,100434.66
2022-12-06T08:29:23.135Z,100449.81
2022-12-06T08:32:25.669Z,100444.91
2022-12-06T08:35:28.397Z,100443.94
2022-12-06T08:38:31.307Z,100440.16
2022-12-06T08:41:53.420Z,100437.78
2022-12-06T08:44:56.222Z,100435.66
2022-12-06T08:47:59.060Z,100447.19
2022-12-06T08:51:04.780Z,100443.38
2022-12-06T08:54:09.371Z,100443.06
2022-12-06T08:57:12.016Z,100446.56
2022-12-06T09:00:15.483Z,100443.53
2022-12-06T09:03:18.022Z,100446.81
2022-12-06T09:06:22.082Z,100453.28
2022-12-06T09:09:24.587Z,100454.47
2022-12-06T09:12:27.399Z,100441.69
2022-12-06T09:15:29.883Z,100436.22
2022-12-06T09:18:33.610Z,100439.59
2022-12-06T09:21:39.694Z,100427.78
2022-12-06T09:24:42.440Z,100437.66
2022-12-06T09:27:44.957Z,100441.19
2022-12-06T09:30:47.691Z,100443.84
2022-12-06T09:33:50.639Z,100438.13
2022-12-06T09:37:05.181Z,100435.66
2022-12-06T09:40:16.865Z,100430.25
2022-12-06T09:43:50.667Z,100427.50
2022-12-06T09:47:18.423Z,100433.16
2022-12-06T09:50:42.901Z,100437.72
2022-12-06T09:53:58.609Z,100444.13
2022-12-06T09:57:05.902Z,100440.19
2022-12-06T10:00:17.744Z,100442.44
2022-12-06T10:03:35.814Z,100443.13
2022-12-06T10:06:47.377Z,100431.91
2022-12-06T10:10:27.418Z,100433.16
2022-12-06T10:14:02.894Z,100435.41
2022-12-06T10:17:30.841Z,100421.56
2022-12-06T10:20:53.983Z,100416.63
2022-12-06T10:24:16.710Z,100406.63
2022-12-06T10:27:44.676Z,100406.53
2022-12-06T10:30:52.474Z,100396.13
2022-12-06T10:34:03.808Z,100389.94
2022-12-06T10:37:32.537Z,100384.81
2022-12-06T10:41:03.276Z,100381.84
2022-12-06T10:44:25.773Z,100374.94
2022-12-06T10:47:43.069Z,100364.16
2022-12-06T10:50:50.986Z,100354.91
2022-12-06T10:53:59.529Z,100362.59
2022-12-06T10:57:08.015Z,100364.88
2022-12-06T11:00:21.551Z,100369.78
2022-12-06T11:03:27.247Z,100361.28
2022-12-06T11:06:38.770Z,100369.69
2022-12-06T11:09:45.319Z,100360.50
2022-12-06T11:12:53.932Z,100358.56
2022-12-06T11:16:03.257Z,100353.09
2022-12-06T11:19:21.696Z,100349.63
2022-12-06T11:22:44.353Z,100340.88
2022-12-06T11:26:05.716Z,100339.88
2022-12-06T11:29:15.057Z,100346.16
2022-12-06T11:32:18.816Z,100348.19
2022-12-06T11:35:28.490Z,100338.41
2022-12-06T11:38:35.752Z,100338.56
2022-12-06T11:41:38.682Z,100336.50
2022-12-06T11:44:50.145Z,100342.75
2022-12-06T11:47:55.710Z,100344.28
2022-12-06T11:51:00.781Z,100347.50
2022-12-06T11:54:26.522Z,100348.44
2022-12-06T11:57:42.773Z,100343.84
2022-12-06T12:01:14.956Z,100350.50
2022-12-06T12:04:39.275Z,100351.19
2022-12-06T12:07:45.456Z,100346.00
2022-12-06T12:11:00.022Z,100347.28
2022-12-06T12:14:07.659Z,100344.78
2022-12-06T12:17:21.038Z,100346.22
2022-12-06T12:20:30.239Z,100347.81
2022-12-06T12:23:36.239Z,100348.94
2022-12-06T12:26:41.972Z,100354.75
2022-12-06T12:29:44.839Z,100346.50
2022-12-06T12:32:49.076Z,100348.59
2022-12-06T12:35:54.184Z,100348.94
2022-12-06T12:39:00.912Z,100355.50
2022-12-06T12:42:04.424Z,100355.09
2022-12-06T12:45:19.404Z,100350.31
2022-12-06T12:48:26.173Z,100351.94
2022-12-06T12:51:33.042Z,100355.16
2022-12-06T12:54:37.742Z,100350.84
2022-12-06T12:57:41.741Z,100358.41
2022-12-06T13:00:48.549Z,100359.94
2022-12-06T13:04:31.432Z,100342.47
2022-12-06T13:07:36.560Z,100340.88
2022-12-06T13:10:43.356Z,100341.47
2022-12-06T13:13:50.704Z,100349.03
2022-12-06T13:16:56.398Z,100350.75
2022-12-06T13:20:00.973Z,100352.34
2022-12-06T13:23:16.180Z,100343.66
2022-12-06T13:26:38.929Z,100343.62
2022-12-06T13:29:53.641Z,100347.16
2022-12-06T13:33:21.233Z,100351.28
2022-12-06T13:36:25.642Z,100350.34
2022-12-06T13:39:31.469Z,100353.69
2022-12-06T13:42:36.728Z,100351.25
2022-12-06T13:45:47.247Z,100357.12
2022-12-06T13:48:56.961Z,100354.22
2022-12-06T13:51:59.872Z,100362.16
2022-12-06T13:55:25.272Z,100364.97
2022-12-06T13:58:28.031Z,100366.97
2022-12-06T14:01:40.207Z,100356.94
2022-12-06T14:04:43.468Z,100351.66
2022-12-06T14:07:46.026Z,100350.19
2022-12-06T14:10:48.794Z,100359.09
2022-12-06T14:13:55.220Z,100358.28
2022-12-06T14:17:02.640Z,100356.50
2022-12-06T14:20:20.376Z,100365.22
2022-12-06T14:23:45.127Z,100347.53
2022-12-06T14:26:47.592Z,100349.25
2022-12-06T14:30:24.861Z,100353.47
2022-12-06T14:33:28.289Z,100351.09
2022-12-06T14:36:39.964Z,100361.75
2022-12-06T14:39:53.331Z,100358.22
2022-12-06T14:43:03.885Z,100358.69
2022-12-06T14:46:11.757Z,100349.13
2022-12-06T14:49:37.399Z,100357.72
2022-12-06T14:53:00.240Z,100356.03
2022-12-06T14:56:06.315Z,100355.34
2022-12-06T14:59:12.439Z,100359.59
2022-12-06T15:02:31.524Z,100365.63
2022-12-06T15:05:45.959Z,100355.63
2022-12-06T15:09:12.101Z,100361.66
2022-12-06T15:12:41.423Z,100362.94
2022-12-06T15:15:47.744Z,100360.69
2022-12-06T15:18:59.198Z,100358.75
2022-12-06T15:22:03.424Z,100357.50
2022-12-06T15:25:06.346Z,100353.41
2022-12-06T15:28:09.234Z,100364.22
2022-12-06T15:31:19.193Z,100367.72
2022-12-06T15:34:35.183Z,100365.72
2022-12-06T15:37:39.557Z,100366.69
2022-12-06T15:40:47.102Z,100374.50
2022-12-06T15:43:50.625Z,100375.03
2022-12-06T15:46:54.867Z,100370.69
2022-12-06T15:49:58.398Z,100377.72
2022-12-06T15:53:01.783Z,100383.78
2022-12-06T15:56:04.723Z,100386.53
2022-12-06T15:59:07.553Z,100396.44
2022-12-06T16:02:18.747Z,100385.50
2022-12-06T16:05:21.612Z,100390.53
2022-12-06T16:08:24.128Z,100389.13
2022-12-06T16:11:27.270Z,100383.94
2022-12-06T16:14:29.719Z,100395.00
2022-12-06T16:17:32.478Z,100388.84
2022-12-06T16:20:35.693Z,100389.53
2022-12-06T16:24:13.849Z,100382.50
2022-12-06T16:27:16.832Z,100391.16
2022-12-06T16:30:31.425Z,100392.69
2022-12-06T16:33:34.065Z,100387.62
2022-12-06T16:36:55.908Z,100393.41
2022-12-06T16:39:58.333Z,100395.59
2022-12-06T16:43:01.028Z,100395.16
2022-12-06T16:46:33.987Z,100380.56
2022-12-06T16:49:48.809Z,100399.53
2022-12-06T16:52:52.409Z,100394.19
2022-12-06T16:55:57.271Z,100399.72
2022-12-06T16:59:00.081Z,100399.44
2022-12-06T17:02:06.053Z,100401.38
